Time;durP1;ratioP1;P1;durP2;ratioP2;P2;SDS_P1;SDS_P2;PMS_P1;PMS_P2;Temp;Humidity;BMP_temperature;BMP_pressure;BME280_temperature;BME280_humidity;BME280_pressure;Samples;Min_cycle;Max_cycle;Signal;HPM_P1;HPM_P2
2022/08/29 00:00:34;;;;;;;2.08;1.23;;;18.00;99.90;;;;;;4996475;28;20176;-86
2022/08/29 00:03:01;;;;;;;4.05;1.67;;;18.00;99.90;;;;;;4996329;28;20185;-90
2022/08/29 00:05:32;;;;;;;6.75;1.65;;;17.80;99.90;;;;;;4996173;28;20180;-90
2022/08/29 00:08:00;;;;;;;1.98;1.30;;;17.90;99.90;;;;;;4994910;28;20181;-90
2022/08/29 00:10:27;;;;;;;2.22;1.23;;;18.00;99.90;;;;;;4994274;28;20212;-90
2022/08/29 00:12:53;;;;;;;3.47;1.48;;;17.90;99.90;;;;;;4995446;28;20669;-89
2022/08/29 00:15:19;;;;;;;2.70;1.30;;;17.80;99.90;;;;;;4996020;28;20181;-89
2022/08/29 00:17:45;;;;;;;2.03;1.30;;;18.00;99.90;;;;;;4995680;28;20243;-90
2022/08/29 00:20:15;;;;;;;2.20;1.38;;;18.00;99.90;;;;;;4995192;28;20251;-89
2022/08/29 00:22:41;;;;;;;4.65;1.40;;;17.90;99.90;;;;;;4994294;28;20195;-90
2022/08/29 00:25:08;;;;;;;5.47;1.52;;;17.80;99.90;;;;;;4993878;28;20169;-89
2022/08/29 00:27:34;;;;;;;2.10;1.50;;;17.70;99.90;;;;;;4995234;28;20172;-89
2022/08/29 00:30:00;;;;;;;4.00;1.30;;;17.70;99.90;;;;;;4996999;28;20169;-89
2022/08/29 00:32:33;;;;;;;2.85;1.17;;;17.40;99.90;;;;;;4996191;28;20596;-90
2022/08/29 00:35:08;;;;;;;2.40;1.20;;;17.60;99.90;;;;;;4996636;28;20186;-89
2022/08/29 00:37:33;;;;;;;2.42;1.48;;;17.30;99.90;;;;;;4997101;28;20188;-88
2022/08/29 00:39:59;;;;;;;1.48;1.15;;;17.30;99.90;;;;;;4996634;28;20223;-89
2022/08/29 00:42:25;;;;;;;1.67;1.17;;;17.20;99.90;;;;;;4999304;28;20212;-89
2022/08/29 00:44:51;;;;;;;2.15;1.30;;;17.20;99.90;;;;;;4998745;28;20180;-85
2022/08/29 00:47:21;;;;;;;8.43;1.60;;;17.40;99.90;;;;;;4999275;28;20176;-88
2022/08/29 00:49:51;;;;;;;2.10;1.35;;;17.30;99.90;;;;;;4997611;28;20264;-88
2022/08/29 00:52:43;;;;;;;3.53;1.20;;;17.50;99.90;;;;;;4998404;28;20192;-87
2022/08/29 00:55:13;;;;;;;6.05;1.40;;;17.60;99.90;;;;;;4996139;28;20185;-91
2022/08/29 00:57:42;;;;;;;3.63;1.80;;;17.40;99.90;;;;;;4999309;28;20288;-89
2022/08/29 01:00:10;;;;;;;2.03;1.38;;;17.20;99.90;;;;;;4999508;28;20173;-90
2022/08/29 01:02:36;;;;;;;6.30;1.92;;;17.40;99.90;;;;;;4998215;28;20204;-87
2022/08/29 01:05:02;;;;;;;5.18;1.65;;;17.20;99.90;;;;;;4998946;28;20173;-89
2022/08/29 01:07:28;;;;;;;5.72;1.60;;;17.30;99.90;;;;;;4998962;28;20295;-88
2022/08/29 01:09:53;;;;;;;3.60;1.58;;;17.40;99.90;;;;;;4997845;28;20227;-89
2022/08/29 01:12:22;;;;;;;8.38;1.45;;;17.30;99.90;;;;;;4998179;28;20620;-89
2022/08/29 01:14:52;;;;;;;9.00;1.85;;;17.30;99.90;;;;;;4998686;28;20173;-90
2022/08/29 01:17:22;;;;;;;4.35;1.40;;;17.30;99.90;;;;;;4998020;28;20174;-86
2022/08/29 01:20:11;;;;;;;3.60;1.95;;;17.40;99.90;;;;;;4999071;28;20173;-86
2022/08/29 01:22:48;;;;;;;2.20;1.50;;;17.30;99.90;;;;;;4997680;28;20197;-88
2022/08/29 01:25:18;;;;;;;2.90;1.58;;;17.30;99.90;;;;;;4998125;28;20176;-89
2022/08/29 01:27:47;;;;;;;4.20;1.92;;;17.20;99.90;;;;;;4998675;28;20154;-89
2022/08/29 01:30:14;;;;;;;3.25;1.75;;;17.20;99.90;;;;;;4998572;28;20181;-90
2022/08/29 01:32:40;;;;;;;7.07;1.85;;;17.20;99.90;;;;;;4996984;28;20276;-87
2022/08/29 01:35:07;;;;;;;1.88;1.40;;;17.00;99.90;;;;;;4996869;28;20276;-89
2022/08/29 01:37:36;;;;;;;2.28;1.65;;;17.00;99.90;;;;;;4996962;28;20193;-88
2022/08/29 01:40:02;;;;;;;7.95;1.98;;;17.00;99.90;;;;;;4997207;28;20223;-90
2022/08/29 01:42:28;;;;;;;2.30;1.95;;;17.10;99.90;;;;;;4996404;28;20257;-90
2022/08/29 01:44:56;;;;;;;5.53;1.50;;;17.10;99.90;;;;;;4998580;28;20197;-90
2022/08/29 01:47:25;;;;;;;6.60;2.20;;;17.00;99.90;;;;;;4997624;28;20165;-89
2022/08/29 01:49:51;;;;;;;5.63;1.70;;;17.00;99.90;;;;;;4997473;28;20202;-90
2022/08/29 01:52:17;;;;;;;2.03;1.70;;;16.90;99.90;;;;;;4996462;28;20189;-89
2022/08/29 01:54:44;;;;;;;4.47;2.17;;;16.90;99.90;;;;;;4998794;28;20189;-90
2022/08/29 01:57:11;;;;;;;7.38;2.38;;;17.00;99.90;;;;;;4996201;28;20535;-88
2022/08/29 01:59:37;;;;;;;2.15;1.70;;;16.80;99.90;;;;;;4996891;28;20212;-85
2022/08/29 02:02:15;;;;;;;5.88;1.65;;;16.60;99.90;;;;;;4995883;28;20216;-86
2022/08/29 02:04:42;;;;;;;12.82;2.25;;;16.50;99.90;;;;;;4996047;28;20192;-87
2022/08/29 02:07:07;;;;;;;2.45;1.70;;;16.40;99.90;;;;;;4996153;28;20165;-88
2022/08/29 02:09:33;;;;;;;6.15;2.08;;;16.30;99.90;;;;;;5002398;28;20185;-90
2022/08/29 02:12:01;;;;;;;5.30;1.90;;;16.40;99.90;;;;;;5017597;28;20173;-90
2022/08/29 02:14:26;;;;;;;6.45;2.20;;;16.40;99.90;;;;;;5019023;28;20169;-87
2022/08/29 02:16:52;;;;;;;4.10;2.30;;;16.50;99.90;;;;;;5017958;28;20216;-90
2022/08/29 02:19:18;;;;;;;7.28;2.22;;;16.60;99.90;;;;;;5019194;28;20221;-86
2022/08/29 02:21:44;;;;;;;7.13;2.67;;;16.50;99.90;;;;;;5020046;28;20189;-86
2022/08/29 02:24:10;;;;;;;5.72;2.25;;;16.70;99.90;;;;;;5019741;28;20173;-86
2022/08/29 02:26:36;;;;;;;6.85;2.00;;;16.70;99.90;;;;;;5020436;28;20177;-84
2022/08/29 02:29:02;;;;;;;7.70;2.00;;;16.60;99.90;;;;;;5020093;28;20196;-88
2022/08/29 02:31:28;;;;;;;4.95;2.80;;;16.60;99.90;;;;;;5010245;28;20185;-84
2022/08/29 02:33:54;;;;;;;3.38;2.30;;;16.60;99.90;;;;;;5000460;28;20211;-84
2022/08/29 02:36:20;;;;;;;2.83;2.30;;;16.40;99.90;;;;;;5000539;28;20196;-90
2022/08/29 02:38:47;;;;;;;5.10;2.28;;;16.40;99.90;;;;;;4994701;28;20575;-84
2022/08/29 02:41:13;;;;;;;6.55;2.83;;;16.50;99.90;;;;;;4994605;28;20701;-83
2022/08/29 02:43:39;;;;;;;4.13;2.42;;;16.50;99.90;;;;;;4994732;28;20589;-84
2022/08/29 02:46:06;;;;;;;3.63;2.05;;;16.60;99.90;;;;;;4994093;28;20169;-88
2022/08/29 02:48:32;;;;;;;6.63;2.00;;;16.50;99.90;;;;;;4995328;28;20252;-84
2022/08/29 02:50:58;;;;;;;7.00;3.03;;;16.30;99.90;;;;;;4994233;28;20188;-86
2022/08/29 02:53:25;;;;;;;2.35;2.00;;;16.30;99.90;;;;;;4995506;28;20185;-90
2022/08/29 02:55:52;;;;;;;3.45;2.05;;;16.40;99.90;;;;;;4994230;28;20200;-84
2022/08/29 02:58:19;;;;;;;7.53;2.15;;;16.30;99.90;;;;;;4993652;28;20239;-89
2022/08/29 03:00:45;;;;;;;2.67;2.13;;;16.20;99.90;;;;;;4995161;28;20228;-87
2022/08/29 03:03:11;;;;;;;4.30;2.30;;;16.20;99.90;;;;;;4994690;28;20196;-85
2022/08/29 03:05:39;;;;;;;9.07;2.60;;;16.20;99.90;;;;;;4992702;28;20252;-84
2022/08/29 03:08:07;;;;;;;6.32;2.25;;;16.20;99.90;;;;;;4993709;28;20315;-85
2022/08/29 03:10:33;;;;;;;7.28;2.42;;;16.00;99.90;;;;;;4995082;28;20189;-83
2022/08/29 03:12:59;;;;;;;3.08;2.00;;;16.00;99.90;;;;;;4994396;28;20193;-84
2022/08/29 03:15:24;;;;;;;13.70;3.45;;;16.00;99.90;;;;;;4994161;28;20649;-89
2022/08/29 03:17:50;;;;;;;10.75;2.20;;;16.00;99.90;;;;;;4994028;28;20189;-84
2022/08/29 03:20:19;;;;;;;4.05;2.05;;;16.00;99.90;;;;;;4994118;28;20697;-90
2022/08/29 03:22:45;;;;;;;102.13;7.45;;;16.00;99.90;;;;;;4994645;28;20185;-85
2022/08/29 03:25:12;;;;;;;60.63;5.65;;;16.10;99.90;;;;;;4994228;28;20169;-87
2022/08/29 03:27:39;;;;;;;8.73;2.65;;;16.10;99.90;;;;;;4995664;28;20180;-87
2022/08/29 03:30:06;;;;;;;8.73;2.20;;;16.00;99.90;;;;;;4995290;28;20165;-89
2022/08/29 03:32:32;;;;;;;6.10;1.75;;;15.90;99.90;;;;;;4994111;28;20220;-86
2022/08/29 03:34:58;;;;;;;3.90;1.80;;;15.90;99.90;;;;;;4995317;28;20169;-86
2022/08/29 03:37:25;;;;;;;4.65;2.42;;;16.00;99.90;;;;;;4994669;28;20172;-84
2022/08/29 03:39:50;;;;;;;8.13;2.58;;;16.10;99.90;;;;;;4993719;28;20191;-84
2022/08/29 03:42:16;;;;;;;3.85;2.22;;;16.10;99.90;;;;;;4994345;28;20681;-87
2022/08/29 03:44:42;;;;;;;5.53;2.28;;;16.20;99.90;;;;;;4993416;28;20219;-85
2022/08/29 03:47:08;;;;;;;6.03;2.63;;;16.30;99.90;;;;;;4994112;28;20239;-84
2022/08/29 03:49:34;;;;;;;7.30;2.20;;;16.30;99.90;;;;;;4993286;28;20399;-89
2022/08/29 03:52:00;;;;;;;4.18;2.00;;;16.30;99.90;;;;;;4993058;28;20193;-88
2022/08/29 03:54:26;;;;;;;3.17;1.98;;;16.00;99.90;;;;;;4995556;28;20177;-89
2022/08/29 03:56:52;;;;;;;8.38;2.40;;;15.80;99.90;;;;;;4997340;28;20173;-85
2022/08/29 03:59:18;;;;;;;10.73;2.42;;;16.00;99.90;;;;;;4995380;28;20213;-85
2022/08/29 04:01:47;;;;;;;7.90;2.55;;;16.10;99.90;;;;;;4996122;28;20733;-88
2022/08/29 04:05:05;;;;;;;10.70;2.47;;;16.10;99.90;;;;;;4994406;28;20205;-85
2022/08/29 04:07:00;;;;;;;10.13;2.80;;;16.20;99.90;;;;;;4994252;28;20173;-88
2022/08/29 04:09:26;;;;;;;3.05;2.08;;;16.20;99.90;;;;;;4992504;28;20203;-85
2022/08/29 04:11:51;;;;;;;6.68;2.47;;;16.20;99.90;;;;;;4992570;28;20193;-86
2022/08/29 04:14:19;;;;;;;11.93;2.35;;;16.10;99.90;;;;;;4992851;28;20180;-86
2022/08/29 04:16:48;;;;;;;6.45;2.10;;;16.10;99.90;;;;;;4992769;28;20169;-87
2022/08/29 04:19:15;;;;;;;3.45;1.98;;;16.20;99.90;;;;;;4993757;28;21272;-85
2022/08/29 04:21:40;;;;;;;3.13;2.08;;;16.20;99.90;;;;;;4993841;28;20525;-85
2022/08/29 04:24:06;;;;;;;3.05;2.25;;;16.10;99.90;;;;;;4994070;28;20256;-88
2022/08/29 04:26:32;;;;;;;6.68;2.20;;;16.10;99.90;;;;;;4993091;28;20227;-86
2022/08/29 04:28:57;;;;;;;5.63;2.47;;;16.40;99.90;;;;;;4992631;28;20260;-87
2022/08/29 04:31:23;;;;;;;7.78;2.05;;;16.40;99.90;;;;;;4993451;28;20173;-84
2022/08/29 04:33:49;;;;;;;6.85;2.08;;;16.10;99.90;;;;;;4994014;28;20154;-83
2022/08/29 04:36:15;;;;;;;14.18;2.67;;;15.90;99.90;;;;;;4992909;28;20177;-89
2022/08/29 04:38:41;;;;;;;4.13;2.17;;;15.90;99.90;;;;;;4992936;28;20577;-87
2022/08/29 04:41:08;;;;;;;9.35;2.72;;;16.00;99.90;;;;;;4992760;28;20176;-86
2022/08/29 04:43:34;;;;;;;5.28;2.60;;;16.10;99.90;;;;;;4992713;28;20177;-84
2022/08/29 04:46:00;;;;;;;9.10;2.08;;;16.00;99.90;;;;;;4992527;28;20173;-85
2022/08/29 04:48:27;;;;;;;5.43;2.35;;;15.80;99.90;;;;;;4992687;28;20235;-88
2022/08/29 04:50:57;;;;;;;6.47;2.58;;;15.80;99.90;;;;;;4997532;28;20221;-85
2022/08/29 04:53:24;;;;;;;7.00;2.38;;;15.80;99.90;;;;;;5007067;28;20228;-86
2022/08/29 04:56:02;;;;;;;9.65;2.10;;;15.80;99.90;;;;;;4999661;28;20189;-88
2022/08/29 04:58:28;;;;;;;7.40;2.20;;;15.90;99.90;;;;;;4992881;28;20205;-90
2022/08/29 05:00:54;;;;;;;12.10;2.53;;;15.90;99.90;;;;;;4993103;28;20166;-88
2022/08/29 05:03:21;;;;;;;7.88;2.80;;;15.90;99.90;;;;;;4993277;28;20296;-90
2022/08/29 05:06:07;;;;;;;3.88;2.40;;;15.90;99.90;;;;;;4994873;28;20257;-89
2022/08/29 05:08:35;;;;;;;4.57;2.28;;;15.90;99.90;;;;;;4993043;28;20173;-89
2022/08/29 05:11:02;;;;;;;11.25;2.53;;;15.80;99.90;;;;;;4994021;28;20208;-85
2022/08/29 05:13:28;;;;;;;9.27;3.05;;;15.80;99.90;;;;;;4992276;28;20193;-88
2022/08/29 05:15:53;;;;;;;11.38;2.40;;;15.80;99.90;;;;;;4992676;28;20169;-85
2022/08/29 05:18:19;;;;;;;3.92;2.28;;;15.90;99.90;;;;;;4994142;28;20603;-86
2022/08/29 05:20:48;;;;;;;11.10;3.10;;;15.90;99.90;;;;;;4997407;28;20173;-85
2022/08/29 05:23:18;;;;;;;5.05;2.42;;;15.80;99.90;;;;;;5000339;28;20213;-89
2022/08/29 05:25:44;;;;;;;6.57;2.70;;;15.80;99.90;;;;;;4997835;28;20228;-85
2022/08/29 05:28:11;;;;;;;7.10;1.88;;;15.80;99.90;;;;;;4997891;28;20165;-85
2022/08/29 05:30:38;;;;;;;12.48;3.25;;;15.80;99.90;;;;;;4997211;28;20668;-85
2022/08/29 05:33:04;;;;;;;11.55;1.98;;;15.90;99.90;;;;;;4996375;28;20211;-86
2022/08/29 05:35:31;;;;;;;7.30;2.20;;;16.00;99.90;;;;;;4995972;28;20183;-84
2022/08/29 05:37:57;;;;;;;4.85;2.42;;;16.20;99.90;;;;;;4996906;28;20193;-87
2022/08/29 05:40:22;;;;;;;3.92;2.28;;;16.00;99.90;;;;;;5002088;28;20173;-84
2022/08/29 05:42:48;;;;;;;13.30;2.85;;;16.00;99.90;;;;;;5000494;28;20190;-84
2022/08/29 05:45:14;;;;;;;6.03;2.13;;;16.00;99.90;;;;;;5000794;28;20162;-86
2022/08/29 05:47:39;;;;;;;4.28;2.03;;;16.00;99.90;;;;;;5000277;28;20180;-83
2022/08/29 05:50:06;;;;;;;5.82;2.67;;;16.10;99.90;;;;;;5001302;28;20219;-84
2022/08/29 05:52:32;;;;;;;11.65;2.67;;;16.10;99.90;;;;;;4999077;28;20221;-82
2022/08/29 05:54:58;;;;;;;5.28;2.60;;;16.10;99.90;;;;;;5000432;28;20169;-81
2022/08/29 05:57:24;;;;;;;16.33;2.88;;;16.20;99.90;;;;;;5003027;28;20196;-85
2022/08/29 05:59:52;;;;;;;3.20;2.25;;;16.20;99.90;;;;;;5005107;28;20207;-83
2022/08/29 06:02:20;;;;;;;7.82;2.35;;;16.10;99.90;;;;;;5004087;28;20634;-88
2022/08/29 06:04:45;;;;;;;6.53;2.58;;;16.20;99.90;;;;;;5006542;28;20173;-84
2022/08/29 06:07:12;;;;;;;8.00;2.42;;;16.20;99.90;;;;;;5000380;28;20233;-83
2022/08/29 06:09:39;;;;;;;5.13;3.28;;;16.10;99.90;;;;;;4995456;28;20177;-87
2022/08/29 06:12:06;;;;;;;8.35;2.88;;;16.20;99.90;;;;;;4994474;28;20189;-83
2022/08/29 06:14:32;;;;;;;9.73;2.65;;;16.30;99.90;;;;;;4996300;28;20187;-86
2022/08/29 06:16:58;;;;;;;3.42;2.45;;;16.50;99.90;;;;;;4994820;28;20181;-91
2022/08/29 06:19:24;;;;;;;7.82;3.00;;;16.50;99.90;;;;;;4994735;28;20228;-87
2022/08/29 06:21:50;;;;;;;5.30;2.53;;;16.50;99.90;;;;;;4995860;28;20189;-86
2022/08/29 06:24:16;;;;;;;10.23;2.92;;;16.60;99.90;;;;;;4993977;28;20252;-85
2022/08/29 06:26:44;;;;;;;10.73;3.22;;;16.60;99.90;;;;;;4995069;28;20240;-82
2022/08/29 06:29:10;;;;;;;9.63;2.88;;;16.60;99.90;;;;;;4993555;28;20184;-81
2022/08/29 06:31:36;;;;;;;8.55;3.00;;;16.60;99.90;;;;;;4993785;28;20294;-83
2022/08/29 06:34:05;;;;;;;5.65;3.03;;;16.50;99.90;;;;;;4993870;28;20577;-81
2022/08/29 06:36:31;;;;;;;11.77;2.53;;;16.50;99.90;;;;;;4994114;28;20176;-83
2022/08/29 06:38:59;;;;;;;10.93;3.22;;;16.60;99.90;;;;;;4994535;28;20205;-86
2022/08/29 06:41:25;;;;;;;10.10;3.42;;;16.70;99.90;;;;;;4994363;28;20204;-89
2022/08/29 06:43:53;;;;;;;12.75;2.63;;;16.80;99.90;;;;;;4994538;28;20169;-83
2022/08/29 06:46:25;;;;;;;3.08;2.42;;;17.00;99.90;;;;;;4995480;28;20235;-85
2022/08/29 06:48:52;;;;;;;5.20;2.90;;;17.20;99.90;;;;;;4978317;28;20209;-82
2022/08/29 06:51:19;;;;;;;8.40;3.30;;;17.20;99.90;;;;;;4993735;28;20536;-82
2022/08/29 06:53:44;;;;;;;11.27;3.00;;;17.10;99.90;;;;;;4993365;28;20169;-85
2022/08/29 06:56:11;;;;;;;11.23;3.20;;;17.10;99.90;;;;;;4992284;28;20270;-82
2022/08/29 06:58:36;;;;;;;10.32;3.17;;;17.10;99.90;;;;;;4992636;28;20885;-83
2022/08/29 07:01:25;;;;;;;15.05;3.03;;;17.20;99.90;;;;;;4994076;28;20175;-81
2022/08/29 07:03:52;;;;;;;9.75;2.40;;;17.30;99.90;;;;;;4992954;28;20235;-81
2022/08/29 07:06:18;;;;;;;6.65;2.13;;;17.00;99.90;;;;;;4994643;28;20659;-80
2022/08/29 07:08:45;;;;;;;3.30;2.20;;;17.10;99.90;;;;;;4992993;28;20169;-81
2022/08/29 07:11:11;;;;;;;25.80;3.25;;;17.40;99.90;;;;;;4994149;28;20166;-82
2022/08/29 07:13:38;;;;;;;8.23;3.30;;;17.50;99.90;;;;;;4993239;28;20240;-85
2022/08/29 07:16:07;;;;;;;5.93;2.40;;;17.70;99.90;;;;;;4994481;28;20248;-89
2022/08/29 07:18:34;;;;;;;17.75;2.83;;;17.80;99.90;;;;;;4996342;28;20291;-85
2022/08/29 07:21:05;;;;;;;6.63;2.33;;;18.00;99.90;;;;;;4994509;28;20165;-82
2022/08/29 07:23:30;;;;;;;8.52;2.80;;;18.00;99.90;;;;;;4996511;28;20185;-83
2022/08/29 07:26:09;;;;;;;11.45;3.10;;;18.20;99.90;;;;;;4997338;28;20184;-81
2022/08/29 07:28:35;;;;;;;11.70;2.42;;;18.30;99.90;;;;;;4994089;28;20184;-85
2022/08/29 07:31:01;;;;;;;18.50;1.92;;;18.20;99.90;;;;;;4995680;28;20169;-88
2022/08/29 07:33:26;;;;;;;8.00;2.45;;;18.20;99.90;;;;;;4996216;28;20177;-88
2022/08/29 07:35:53;;;;;;;5.43;2.00;;;18.30;99.90;;;;;;4994208;28;20203;-83
2022/08/29 07:38:19;;;;;;;7.85;2.58;;;18.20;99.90;;;;;;4994506;28;20200;-86
2022/08/29 07:40:45;;;;;;;5.93;2.20;;;18.30;99.90;;;;;;4996416;28;20689;-86
2022/08/29 07:43:11;;;;;;;9.38;2.10;;;18.50;99.90;;;;;;4995596;28;20193;-87
2022/08/29 07:45:38;;;;;;;4.97;2.45;;;18.50;99.90;;;;;;4994802;28;20205;-85
2022/08/29 07:48:04;;;;;;;5.80;1.98;;;18.70;99.90;;;;;;4996514;28;20212;-90
2022/08/29 07:50:30;;;;;;;8.48;2.50;;;18.50;99.90;;;;;;4996859;28;20174;-91
2022/08/29 07:52:55;;;;;;;9.05;2.00;;;18.40;99.90;;;;;;4995650;28;20197;-88
2022/08/29 07:55:21;;;;;;;9.95;2.03;;;18.30;99.90;;;;;;4994505;28;20262;-87
2022/08/29 07:57:51;;;;;;;16.58;1.92;;;18.40;99.90;;;;;;4997432;28;20196;-91
2022/08/29 08:00:18;;;;;;;7.88;1.80;;;18.20;99.90;;;;;;4998366;28;20185;-90
2022/08/29 08:02:43;;;;;;;11.63;2.40;;;18.10;99.90;;;;;;4996885;28;20197;-86
2022/08/29 08:05:09;;;;;;;11.38;2.33;;;18.10;99.90;;;;;;4995433;28;20504;-90
2022/08/29 08:07:35;;;;;;;8.18;2.10;;;18.30;99.90;;;;;;4997064;28;20175;-88
2022/08/29 08:10:02;;;;;;;6.93;2.03;;;18.30;99.90;;;;;;4997675;28;20205;-91
2022/08/29 08:12:28;;;;;;;5.40;2.03;;;18.50;99.90;;;;;;4996234;28;20189;-91
2022/08/29 08:14:55;;;;;;;8.77;2.10;;;18.40;99.90;;;;;;4994224;28;20588;-89
2022/08/29 08:17:22;;;;;;;4.68;1.98;;;18.40;99.90;;;;;;4993935;28;20169;-89
2022/08/29 08:19:48;;;;;;;3.75;1.45;;;18.60;99.90;;;;;;4993720;28;20744;-88
2022/08/29 08:22:14;;;;;;;4.22;2.00;;;18.60;99.90;;;;;;5002092;28;20241;-85
2022/08/29 08:24:40;;;;;;;8.43;1.83;;;18.80;99.90;;;;;;5006858;28;20168;-87
2022/08/29 08:27:06;;;;;;;6.05;1.80;;;19.00;99.90;;;;;;5006981;28;20176;-87
2022/08/29 08:29:45;;;;;;;17.00;2.10;;;19.20;99.90;;;;;;5008793;28;20323;-82
2022/08/29 08:32:16;;;;;;;12.05;1.67;;;19.20;99.90;;;;;;5001371;28;20189;-82
2022/08/29 08:35:04;;;;;;;2.85;1.60;;;19.20;99.90;;;;;;5016784;28;20161;-83
2022/08/29 08:37:39;;;;;;;3.15;1.83;;;19.30;99.90;;;;;;5017592;28;20185;-87
2022/08/29 08:40:39;;;;;;;5.38;1.60;;;19.20;99.90;;;;;;5014834;28;20172;-82
2022/08/29 08:43:26;;;;;;;9.38;1.60;;;19.30;99.90;;;;;;5016514;28;20196;-82
2022/08/29 08:46:03;;;;;;;3.05;1.58;;;19.40;99.90;;;;;;5015346;28;20196;-82
2022/08/29 08:48:44;;;;;;;7.05;1.85;;;19.30;99.90;;;;;;5015347;28;20165;-82
2022/08/29 08:51:37;;;;;;;6.93;1.73;;;19.20;99.90;;;;;;5014810;28;20180;-82
2022/08/29 08:54:47;;;;;;;2.78;1.67;;;19.30;99.90;;;;;;5016240;28;20157;-82
2022/08/29 08:57:32;;;;;;;6.88;2.45;;;19.30;99.90;;;;;;5016128;28;20177;-82
2022/08/29 09:00:28;;;;;;;7.10;1.58;;;19.30;99.90;;;;;;5013435;28;20211;-82
2022/08/29 09:03:29;;;;;;;3.72;1.92;;;19.40;99.90;;;;;;5017339;28;20280;-85
2022/08/29 09:06:03;;;;;;;7.88;2.13;;;19.60;99.90;;;;;;5018154;28;20161;-85
2022/08/29 09:09:02;;;;;;;7.50;1.98;;;19.50;99.90;;;;;;5018640;28;20239;-86
2022/08/29 09:12:10;;;;;;;15.30;2.28;;;19.60;99.90;;;;;;5015860;28;20288;-86
2022/08/29 09:15:00;;;;;;;6.35;2.38;;;19.80;99.90;;;;;;5018870;28;20176;-88
2022/08/29 09:17:46;;;;;;;4.22;1.98;;;19.70;99.90;;;;;;5006181;28;20177;-90
2022/08/29 09:20:16;;;;;;;4.05;1.75;;;19.60;99.90;;;;;;5003275;28;20191;-86
2022/08/29 09:22:51;;;;;;;3.78;1.85;;;19.60;99.90;;;;;;5012799;28;20169;-86
2022/08/29 09:25:16;;;;;;;3.45;1.75;;;19.60;99.90;;;;;;5016884;28;20196;-90
2022/08/29 09:27:42;;;;;;;6.45;2.85;;;19.50;99.90;;;;;;5018070;28;20197;-89
2022/08/29 09:30:14;;;;;;;8.20;2.22;;;19.50;99.90;;;;;;5006311;28;20173;-84
2022/08/29 09:32:54;;;;;;;4.20;1.83;;;19.50;99.90;;;;;;5002566;28;20252;-84
2022/08/29 09:35:23;;;;;;;8.55;1.98;;;19.70;99.90;;;;;;5003787;28;20173;-84
2022/08/29 09:37:58;;;;;;;3.50;1.95;;;19.90;99.90;;;;;;5008400;28;20165;-86
2022/08/29 09:40:59;;;;;;;5.95;2.10;;;20.00;99.90;;;;;;5002385;28;20227;-89
2022/08/29 09:43:39;;;;;;;5.72;1.50;;;20.10;99.90;;;;;;4999854;28;20201;-88
2022/08/29 09:46:17;;;;;;;10.90;2.35;;;20.40;99.90;;;;;;4998500;28;20217;-88
2022/08/29 09:48:45;;;;;;;5.20;2.00;;;20.60;99.90;;;;;;4999443;28;20173;-88
2022/08/29 09:51:18;;;;;;;4.53;1.77;;;20.40;99.90;;;;;;4998592;28;20256;-88
2022/08/29 09:53:44;;;;;;;8.95;1.95;;;20.40;99.90;;;;;;4997963;28;20594;-88
2022/08/29 09:56:22;;;;;;;8.23;2.05;;;20.40;99.90;;;;;;5000177;28;20172;-86
2022/08/29 09:59:03;;;;;;;3.30;2.15;;;20.40;99.90;;;;;;4995506;28;20615;-88
2022/08/29 10:01:31;;;;;;;4.10;1.75;;;20.40;99.90;;;;;;4979854;28;20248;-88
2022/08/29 10:04:03;;;;;;;8.60;2.33;;;20.50;99.90;;;;;;4993918;28;20192;-87
2022/08/29 10:06:40;;;;;;;7.80;1.83;;;20.50;99.90;;;;;;4996555;28;20185;-87
2022/08/29 10:09:22;;;;;;;3.38;1.95;;;20.80;99.90;;;;;;4997954;28;20235;-89
2022/08/29 10:11:52;;;;;;;6.30;2.20;;;20.90;99.90;;;;;;4998209;28;20255;-89
2022/08/29 10:14:37;;;;;;;5.10;2.17;;;20.80;99.90;;;;;;4997705;28;20173;-87
2022/08/29 10:20:08;;;;;;;8.30;2.17;;;21.00;99.90;;;;;;4983130;28;20180;-86
2022/08/29 10:23:01;;;;;;;9.00;2.13;;;21.00;99.90;;;;;;4999021;28;20661;-88
2022/08/29 10:25:40;;;;;;;2.05;1.52;;;20.90;99.90;;;;;;4998353;28;20169;-85
2022/08/29 10:28:25;;;;;;;6.63;1.77;;;20.90;99.90;;;;;;4997646;28;20526;-85
2022/08/29 10:31:03;;;;;;;9.82;2.17;;;20.90;99.90;;;;;;4998235;28;20169;-87
2022/08/29 10:34:07;;;;;;;9.90;2.47;;;20.90;99.90;;;;;;4997593;28;20193;-88
2022/08/29 10:36:39;;;;;;;5.13;1.90;;;21.00;99.90;;;;;;4998645;28;20510;-84
2022/08/29 10:39:12;;;;;;;5.97;1.98;;;21.00;99.90;;;;;;4999316;28;20740;-89
2022/08/29 10:41:51;;;;;;;18.50;2.47;;;21.20;99.90;;;;;;4997735;28;20221;-88
2022/08/29 10:44:48;;;;;;;3.17;2.38;;;21.30;99.90;;;;;;4999109;28;20626;-87
2022/08/29 10:47:31;;;;;;;4.63;2.17;;;21.40;99.90;;;;;;4997590;28;20656;-88
2022/08/29 10:50:14;;;;;;;7.90;1.90;;;21.50;99.90;;;;;;4997373;28;20196;-89
2022/08/29 10:53:03;;;;;;;8.70;2.13;;;21.70;99.90;;;;;;4996759;28;20193;-84
2022/08/29 10:55:58;;;;;;;9.15;2.05;;;21.80;99.90;;;;;;4999214;28;20260;-87
2022/08/29 10:58:54;;;;;;;7.35;2.50;;;21.80;99.90;;;;;;5010100;28;20212;-84
2022/08/29 11:01:44;;;;;;;3.20;1.90;;;21.90;99.90;;;;;;5003860;28;20173;-86
2022/08/29 11:04:28;;;;;;;1.85;1.60;;;21.90;99.90;;;;;;5004244;28;20197;-88
2022/08/29 11:07:08;;;;;;;9.10;2.25;;;21.80;99.90;;;;;;4998468;28;20200;-86
2022/08/29 11:09:46;;;;;;;4.53;3.20;;;21.70;99.90;;;;;;4998496;28;20193;-88
2022/08/29 11:12:43;;;;;;;5.25;2.33;;;21.70;99.90;;;;;;4997628;28;20185;-87
2022/08/29 11:15:34;;;;;;;8.98;2.38;;;21.70;99.90;;;;;;4996671;28;20252;-87
2022/08/29 11:18:25;;;;;;;10.02;1.90;;;21.70;99.90;;;;;;4997817;28;20197;-88
2022/08/29 11:20:56;;;;;;;6.28;2.05;;;21.80;99.90;;;;;;4997622;28;20188;-87
2022/08/29 11:23:40;;;;;;;4.07;1.90;;;21.80;99.90;;;;;;4997046;28;20217;-88
2022/08/29 11:26:21;;;;;;;3.00;1.85;;;22.10;99.90;;;;;;4995466;28;20201;-84
2022/08/29 11:29:12;;;;;;;7.80;2.05;;;22.10;99.90;;;;;;4999576;28;20344;-85
2022/08/29 11:31:44;;;;;;;3.08;2.25;;;22.00;99.90;;;;;;4999827;28;20189;-89
2022/08/29 11:34:30;;;;;;;5.43;2.20;;;21.90;99.90;;;;;;5000577;28;20177;-90
2022/08/29 11:36:55;;;;;;;3.50;1.90;;;21.90;99.90;;;;;;5000234;28;20264;-94
2022/08/29 11:39:47;;;;;;;4.05;2.15;;;22.00;99.90;;;;;;4999008;28;20625;-93
2022/08/29 11:42:15;;;;;;;7.13;2.58;;;22.10;99.90;;;;;;4999083;28;20272;-90
2022/08/29 11:44:52;;;;;;;3.58;1.95;;;22.10;99.90;;;;;;4998560;28;20626;-91
2022/08/29 11:47:56;;;;;;;25.73;3.78;;;22.20;99.90;;;;;;4996211;28;20193;-88
2022/08/29 11:50:42;;;;;;;20.85;2.67;;;22.30;99.90;;;;;;4996927;28;20172;-90
2022/08/29 11:53:32;;;;;;;4.97;2.03;;;22.40;99.90;;;;;;4995427;28;20193;-93
2022/08/29 11:56:13;;;;;;;4.88;2.33;;;22.40;99.90;;;;;;4996762;28;20176;-93
2022/08/29 11:58:48;;;;;;;10.02;3.25;;;22.60;99.90;;;;;;4998595;28;20220;-88
2022/08/29 12:01:23;;;;;;;15.43;2.30;;;22.50;99.90;;;;;;4998137;28;20161;-91
2022/08/29 12:03:49;;;;;;;6.72;2.10;;;22.60;99.90;;;;;;4997857;28;20184;-91
2022/08/29 12:06:23;;;;;;;5.38;2.10;;;22.70;99.90;;;;;;4997072;28;20169;-86
2022/08/29 12:09:16;;;;;;;3.70;2.22;;;22.80;99.90;;;;;;4996027;28;20189;-84
2022/08/29 12:12:04;;;;;;;7.60;2.50;;;23.00;99.90;;;;;;4995350;28;20192;-87
2022/08/29 12:14:29;;;;;;;5.70;2.38;;;23.00;99.90;;;;;;4995046;28;20226;-87
2022/08/29 12:16:57;;;;;;;8.18;1.80;;;23.00;99.90;;;;;;4995251;28;20625;-89
2022/08/29 12:19:56;;;;;;;3.85;2.03;;;22.90;99.90;;;;;;4995848;28;20200;-92
2022/08/29 12:22:46;;;;;;;8.25;2.28;;;22.70;99.90;;;;;;4995402;28;20291;-90
2022/08/29 12:25:27;;;;;;;4.97;2.20;;;22.80;99.90;;;;;;4996450;28;20169;-94
2022/08/29 12:28:04;;;;;;;8.18;2.75;;;23.00;99.90;;;;;;5000792;28;20188;-93
2022/08/29 12:30:39;;;;;;;5.75;2.28;;;23.00;99.90;;;;;;4994987;28;20177;-85
2022/08/29 12:33:16;;;;;;;3.20;2.13;;;23.10;99.90;;;;;;4991470;28;20719;-84
2022/08/29 12:36:00;;;;;;;10.30;2.08;;;23.20;99.90;;;;;;4992050;28;20172;-83
2022/08/29 12:38:32;;;;;;;4.32;1.85;;;23.40;99.90;;;;;;4997122;28;20573;-83
2022/08/29 12:41:17;;;;;;;12.65;2.30;;;23.40;99.90;;;;;;4995959;28;20176;-84
2022/08/29 12:43:44;;;;;;;9.35;2.38;;;23.30;99.90;;;;;;4995752;28;20268;-84
2022/08/29 12:46:35;;;;;;;5.63;2.33;;;23.20;99.90;;;;;;4996460;28;20170;-84
2022/08/29 12:49:28;;;;;;;4.97;2.22;;;23.20;99.90;;;;;;4997687;28;20264;-83
2022/08/29 12:52:01;;;;;;;3.60;2.33;;;23.30;99.90;;;;;;4996994;28;20197;-85
2022/08/29 12:54:40;;;;;;;6.47;2.20;;;23.30;99.90;;;;;;4996315;28;20169;-83
2022/08/29 12:57:08;;;;;;;4.72;2.15;;;23.30;99.90;;;;;;4996773;28;20512;-83
2022/08/29 12:59:34;;;;;;;3.33;2.13;;;23.50;99.90;;;;;;4998789;28;20216;-82
2022/08/29 13:02:00;;;;;;;3.83;1.88;;;23.30;99.90;;;;;;4980402;28;20235;-88
2022/08/29 13:04:32;;;;;;;3.63;2.10;;;23.40;99.90;;;;;;4996201;28;20184;-84
2022/08/29 13:07:06;;;;;;;4.82;2.53;;;23.40;99.90;;;;;;4996290;28;20169;-89
2022/08/29 13:09:44;;;;;;;5.90;2.33;;;23.40;99.90;;;;;;4996394;28;20677;-84
2022/08/29 13:12:33;;;;;;;6.15;2.03;;;23.40;99.90;;;;;;4995425;28;20208;-86